Aviation Digital Data Service (ADDS)

Output produced by METARs form (0533 UTC 19 March 2019)
found at http://www.aviationweather.gov/metar/data/
 
Forecast for: ETNS (SCHLESWIG(GER-NA, DE)
Text: TAF ETNS 190520Z 1906/1915 29012G22KT 9999 NSW FEW020 SCT040 BY ETGL
Forecast period: 0600 to 1500 UTC 19 March 2019
Forecast type: FROM: standard forecast or significant change
Winds: from the WNW (290 degrees) at 14 MPH (12 knots; 6.2 m/s)
gusting to 25 MPH (22 knots; 11.3 m/s)
Visibility: 6 or more miles 10+ km)
Ceiling: at least 12,000 feet AGL
Clouds: few clouds at 2000 feet AGL
scattered clouds at 4000 feet AGL
Weather: NSW  (no significant weather)